Time;durP1;ratioP1;P1;durP2;ratioP2;P2;SDS_P1;SDS_P2;PMS_P1;PMS_P2;Temp;Humidity;BMP_temperature;BMP_pressure;BME280_temperature;BME280_humidity;BME280_pressure;Samples;Min_cycle;Max_cycle;Signal;HPM_P1;HPM_P2
2023/10/15 00:01:27;;;;;;;5.57;1.70;;;;;;;;;;5075241;28;20039;-79
2023/10/15 00:03:52;;;;;;;8.18;1.55;;;;;;;;;;5072064;28;20028;-83
2023/10/15 00:06:18;;;;;;;6.70;1.50;;;;;;;;;;5071384;28;20052;-82
2023/10/15 00:08:43;;;;;;;7.25;1.65;;;;;;;;;;5070666;28;20126;-81
2023/10/15 00:11:13;;;;;;;6.93;1.40;;;;;;;;;;5071073;28;20082;-80
2023/10/15 00:13:38;;;;;;;1.92;1.17;;;;;;;;;;5071144;28;20065;-78
2023/10/15 00:16:04;;;;;;;6.78;2.08;;;;;;;;;;5069657;28;20146;-81
2023/10/15 00:18:29;;;;;;;7.72;1.60;;;;;;;;;;5067711;28;20040;-81
2023/10/15 00:20:55;;;;;;;3.65;1.10;;;;;;;;;;5070004;28;20162;-82
2023/10/15 00:23:20;;;;;;;1.77;1.23;;;;;;;;;;5075733;28;20040;-80
2023/10/15 00:25:49;;;;;;;6.68;1.50;;;;;;;;;;5078770;28;20127;-82
2023/10/15 00:28:15;;;;;;;6.85;1.98;;;;;;;;;;5070883;28;20029;-82
2023/10/15 00:30:42;;;;;;;5.93;1.98;;;;;;;;;;5071570;28;20481;-80
2023/10/15 00:33:11;;;;;;;5.00;1.23;;;;;;;;;;5070491;28;20039;-82
2023/10/15 00:35:37;;;;;;;4.68;1.55;;;;;;;;;;5071781;28;20043;-80
2023/10/15 00:38:11;;;;;;;1.63;0.90;;;;;;;;;;5078606;28;20032;-81
2023/10/15 00:40:41;;;;;;;3.35;1.35;;;;;;;;;;5049540;28;20367;-81
2023/10/15 00:43:06;;;;;;;4.63;1.30;;;;;;;;;;5058996;28;20144;-81
2023/10/15 00:45:39;;;;;;;9.32;1.70;;;;;;;;;;5069851;28;20139;-80
2023/10/15 00:50:43;;;;;;;3.40;1.98;;;;;;;;;;5050411;28;20077;-81
2023/10/15 00:53:26;;;;;;;7.45;1.67;;;;;;;;;;5055674;28;20091;-82
2023/10/15 00:55:51;;;;;;;5.70;1.30;;;;;;;;;;5069211;28;20111;-81
2023/10/15 01:03:49;;;;;;;7.78;1.80;;;;;;;;;;5070112;28;20036;-81
2023/10/15 01:06:18;;;;;;;5.50;1.40;;;;;;;;;;5068968;28;20035;-83
2023/10/15 01:08:46;;;;;;;5.03;1.48;;;;;;;;;;5069919;28;20488;-82
2023/10/15 01:11:15;;;;;;;6.20;1.70;;;;;;;;;;5068783;28;20659;-82
2023/10/15 01:13:41;;;;;;;3.70;1.48;;;;;;;;;;5075783;28;20053;-81
2023/10/15 01:16:08;;;;;;;3.35;1.40;;;;;;;;;;5051098;28;20079;-80
2023/10/15 01:18:37;;;;;;;8.77;2.58;;;;;;;;;;5077963;28;20027;-76
2023/10/15 01:21:04;;;;;;;3.05;1.63;;;;;;;;;;5089443;28;20036;-82
2023/10/15 01:23:32;;;;;;;3.30;1.50;;;;;;;;;;5079995;28;20039;-76
2023/10/15 01:25:59;;;;;;;2.17;1.30;;;;;;;;;;5078180;28;20020;-81
2023/10/15 01:28:36;;;;;;;12.95;2.38;;;;;;;;;;5079190;28;20032;-81
2023/10/15 01:31:04;;;;;;;3.65;1.40;;;;;;;;;;5078122;28;20108;-82
2023/10/15 01:33:30;;;;;;;3.80;2.17;;;;;;;;;;5077819;28;20017;-75
2023/10/15 01:36:06;;;;;;;2.75;1.40;;;;;;;;;;5078610;28;20040;-81
2023/10/15 01:38:34;;;;;;;4.53;1.58;;;;;;;;;;5066416;28;20055;-81
2023/10/15 01:41:03;;;;;;;6.30;1.73;;;;;;;;;;5055783;28;20566;-82
2023/10/15 01:43:32;;;;;;;14.13;2.22;;;;;;;;;;5063868;28;20028;-82
2023/10/15 01:45:58;;;;;;;8.90;2.03;;;;;;;;;;5073524;28;20074;-82
2023/10/15 01:48:32;;;;;;;2.72;1.67;;;;;;;;;;5067344;28;20036;-81
2023/10/15 01:51:04;;;;;;;15.70;2.05;;;;;;;;;;5073270;28;20124;-82
2023/10/15 01:53:34;;;;;;;3.45;1.80;;;;;;;;;;5072795;28;20029;-83
2023/10/15 01:56:00;;;;;;;4.45;2.47;;;;;;;;;;5073991;28;20020;-81
2023/10/15 01:58:31;;;;;;;5.70;1.55;;;;;;;;;;5071831;28;20089;-81
2023/10/15 02:01:08;;;;;;;3.70;1.85;;;;;;;;;;5072857;28;20047;-81
2023/10/15 02:03:34;;;;;;;2.85;1.60;;;;;;;;;;5073469;28;20028;-80
2023/10/15 02:06:05;;;;;;;5.63;1.90;;;;;;;;;;5072673;28;20035;-82
2023/10/15 02:08:30;;;;;;;8.02;1.85;;;;;;;;;;5072862;28;20163;-81
2023/10/15 02:10:56;;;;;;;2.75;1.50;;;;;;;;;;5073788;28;20059;-81
2023/10/15 02:13:21;;;;;;;2.90;2.03;;;;;;;;;;5072926;28;20055;-80
2023/10/15 02:15:49;;;;;;;5.28;1.80;;;;;;;;;;5071966;28;20043;-81
2023/10/15 02:18:17;;;;;;;5.50;2.35;;;;;;;;;;5088774;28;20037;-82
2023/10/15 02:23:18;;;;;;;2.35;1.60;;;;;;;;;;5073643;28;20366;-82
2023/10/15 02:25:56;;;;;;;6.22;2.03;;;;;;;;;;5073535;28;20024;-81
2023/10/15 02:28:25;;;;;;;2.67;1.55;;;;;;;;;;5076664;28;20029;-77
2023/10/15 02:31:30;;;;;;;7.10;2.08;;;;;;;;;;5052384;28;20067;-83
2023/10/15 02:33:46;;;;;;;7.97;1.83;;;;;;;;;;5067509;28;20032;-83
2023/10/15 02:36:16;;;;;;;6.78;2.00;;;;;;;;;;5072503;28;20245;-80
2023/10/15 02:38:52;;;;;;;6.75;2.28;;;;;;;;;;5071705;28;20028;-81
2023/10/15 02:41:18;;;;;;;4.72;1.52;;;;;;;;;;5071608;28;20074;-81
2023/10/15 02:43:53;;;;;;;5.78;1.75;;;;;;;;;;5071727;28;20036;-82
2023/10/15 02:46:23;;;;;;;3.33;1.75;;;;;;;;;;5088270;28;20017;-78
2023/10/15 02:48:53;;;;;;;3.80;1.88;;;;;;;;;;5083161;28;20024;-83
2023/10/15 02:51:23;;;;;;;3.38;1.60;;;;;;;;;;5079523;28;20029;-83
2023/10/15 02:56:32;;;;;;;10.20;1.88;;;;;;;;;;5080988;28;20112;-80
2023/10/15 02:58:57;;;;;;;3.00;1.50;;;;;;;;;;5071929;28;20070;-81
2023/10/15 03:01:24;;;;;;;4.18;1.58;;;;;;;;;;5063323;28;20029;-81
2023/10/15 03:03:50;;;;;;;3.50;1.92;;;;;;;;;;5058695;28;20033;-82
2023/10/15 03:06:18;;;;;;;7.00;1.60;;;;;;;;;;5072839;28;20024;-82
2023/10/15 03:08:47;;;;;;;4.13;2.30;;;;;;;;;;5081375;28;20068;-83
2023/10/15 03:11:12;;;;;;;5.45;1.90;;;;;;;;;;5089952;28;20025;-80
2023/10/15 03:13:49;;;;;;;2.55;1.55;;;;;;;;;;5080797;28;20083;-81
2023/10/15 03:16:15;;;;;;;6.70;1.70;;;;;;;;;;5080746;28;20031;-75
2023/10/15 03:18:40;;;;;;;5.38;1.50;;;;;;;;;;5075133;28;20058;-74
2023/10/15 03:21:10;;;;;;;4.97;1.75;;;;;;;;;;5075846;28;20032;-74
2023/10/15 03:23:36;;;;;;;8.95;2.60;;;;;;;;;;5074212;28;20360;-74
2023/10/15 03:26:02;;;;;;;3.72;1.73;;;;;;;;;;5074725;28;20021;-74
2023/10/15 03:28:27;;;;;;;7.70;1.80;;;;;;;;;;5063615;28;20102;-75
2023/10/15 03:30:56;;;;;;;5.38;1.65;;;;;;;;;;5052753;28;20052;-75
2023/10/15 03:33:23;;;;;;;4.97;1.40;;;;;;;;;;5060703;28;20365;-75
2023/10/15 03:35:54;;;;;;;5.20;1.80;;;;;;;;;;5070897;28;20030;-75
2023/10/15 03:38:23;;;;;;;7.38;1.60;;;;;;;;;;5086776;28;20128;-74
2023/10/15 03:40:50;;;;;;;5.80;1.38;;;;;;;;;;5069854;28;20093;-75
2023/10/15 03:43:16;;;;;;;2.95;1.77;;;;;;;;;;5069634;28;20029;-75
2023/10/15 03:45:51;;;;;;;3.13;1.70;;;;;;;;;;5069830;28;20020;-74
2023/10/15 03:48:21;;;;;;;6.32;1.58;;;;;;;;;;5069757;28;20107;-75
2023/10/15 03:50:57;;;;;;;6.43;1.55;;;;;;;;;;5069683;28;20154;-75
2023/10/15 03:53:35;;;;;;;3.00;1.63;;;;;;;;;;5069119;28;20043;-75
2023/10/15 03:56:01;;;;;;;4.53;1.92;;;;;;;;;;5052798;28;20021;-75
2023/10/15 03:58:33;;;;;;;3.40;1.52;;;;;;;;;;5070352;28;20055;-75
2023/10/15 04:01:33;;;;;;;6.20;1.50;;;;;;;;;;5070221;28;20097;-75
2023/10/15 04:03:50;;;;;;;;;;;;;;;;;;5067283;28;20044;-76
2023/10/15 04:06:19;;;;;;;4.63;1.08;;;;;;;;;;5052740;28;20238;-75
2023/10/15 04:09:33;;;;;;;7.10;1.70;;;;;;;;;;5059725;28;20028;-76
2023/10/15 04:11:41;;;;;;;3.70;1.20;;;;;;;;;;5072375;28;20026;-74
2023/10/15 04:14:28;;;;;;;3.90;1.50;;;;;;;;;;5070530;28;20041;-75
2023/10/15 04:16:53;;;;;;;2.17;1.25;;;;;;;;;;5070082;28;20025;-75
2023/10/15 04:19:19;;;;;;;3.42;1.42;;;;;;;;;;5071719;28;20024;-75
2023/10/15 04:21:45;;;;;;;5.78;2.05;;;;;;;;;;5069291;28;20032;-75
2023/10/15 04:24:14;;;;;;;7.57;1.48;;;;;;;;;;5065753;28;20490;-74
2023/10/15 04:26:48;;;;;;;6.68;1.40;;;;;;;;;;5086225;28;20032;-75
2023/10/15 04:29:17;;;;;;;7.65;1.20;;;;;;;;;;5066951;28;20098;-75
2023/10/15 04:32:23;;;;;;;3.65;1.48;;;;;;;;;;5050446;28;20090;-75
2023/10/15 04:34:38;;;;;;;7.40;1.40;;;;;;;;;;5075465;28;20366;-74
2023/10/15 04:37:10;;;;;;;6.15;1.92;;;;;;;;;;5073465;28;20036;-75
2023/10/15 04:39:36;;;;;;;4.97;1.42;;;;;;;;;;5070484;28;20020;-75
2023/10/15 04:42:06;;;;;;;7.13;1.65;;;;;;;;;;5070684;28;20028;-75
2023/10/15 04:44:32;;;;;;;6.55;1.95;;;;;;;;;;5069745;28;20024;-76
2023/10/15 04:47:05;;;;;;;4.50;1.70;;;;;;;;;;5068742;28;20032;-76
2023/10/15 04:49:31;;;;;;;6.45;1.98;;;;;;;;;;5086318;28;20025;-76
2023/10/15 04:51:58;;;;;;;4.90;1.85;;;;;;;;;;5070967;28;20099;-75
2023/10/15 04:54:23;;;;;;;2.72;1.30;;;;;;;;;;5052921;28;20165;-75
2023/10/15 04:56:49;;;;;;;6.10;1.88;;;;;;;;;;5052491;28;20116;-76
2023/10/15 04:59:15;;;;;;;6.43;1.60;;;;;;;;;;5070126;28;20037;-75
2023/10/15 05:01:42;;;;;;;5.45;1.73;;;;;;;;;;5071486;28;20024;-74
2023/10/15 05:04:09;;;;;;;4.13;1.60;;;;;;;;;;5069202;28;20024;-75
2023/10/15 05:06:35;;;;;;;2.20;1.20;;;;;;;;;;5069931;28;20050;-75
2023/10/15 05:09:00;;;;;;;3.67;1.60;;;;;;;;;;5068020;28;20120;-75
2023/10/15 05:11:26;;;;;;;3.63;1.80;;;;;;;;;;5068519;28;20025;-75
2023/10/15 05:13:51;;;;;;;4.78;2.08;;;;;;;;;;5069178;28;20485;-75
2023/10/15 05:16:17;;;;;;;8.35;1.90;;;;;;;;;;5068445;28;20033;-75
2023/10/15 05:18:47;;;;;;;7.32;2.17;;;;;;;;;;5067995;28;20392;-76
2023/10/15 05:21:13;;;;;;;9.30;1.98;;;;;;;;;;5067450;28;20032;-75
2023/10/15 05:23:38;;;;;;;7.93;2.33;;;;;;;;;;5069039;28;20558;-74
2023/10/15 05:26:04;;;;;;;6.53;2.53;;;;;;;;;;5068165;28;20070;-75
2023/10/15 05:28:29;;;;;;;5.63;2.13;;;;;;;;;;5069631;28;20044;-76
2023/10/15 05:30:57;;;;;;;4.88;2.22;;;;;;;;;;5067998;28;20027;-76
2023/10/15 05:33:23;;;;;;;3.10;2.25;;;;;;;;;;5068012;28;20036;-76
2023/10/15 05:35:49;;;;;;;7.82;2.50;;;;;;;;;;5069670;28;20028;-75
2023/10/15 05:38:16;;;;;;;4.25;2.15;;;;;;;;;;5068235;28;20376;-75
2023/10/15 05:40:42;;;;;;;4.68;2.03;;;;;;;;;;5068470;28;20024;-75
2023/10/15 05:43:07;;;;;;;12.50;4.90;;;;;;;;;;5068915;28;20040;-75
2023/10/15 05:45:33;;;;;;;7.13;1.92;;;;;;;;;;5058166;28;20560;-75
2023/10/15 05:47:58;;;;;;;8.27;2.35;;;;;;;;;;5068146;28;20024;-75
2023/10/15 05:50:24;;;;;;;3.63;2.40;;;;;;;;;;5068552;28;20029;-75
2023/10/15 05:52:50;;;;;;;2.35;1.98;;;;;;;;;;5068054;28;20389;-76
2023/10/15 05:55:15;;;;;;;10.43;2.97;;;;;;;;;;5067919;28;20567;-75
2023/10/15 05:57:41;;;;;;;7.90;3.72;;;;;;;;;;5068281;28;20511;-74
2023/10/15 06:00:18;;;;;;;7.32;3.25;;;;;;;;;;5069631;28;20475;-75
2023/10/15 06:02:56;;;;;;;5.35;2.70;;;;;;;;;;5068062;28;20749;-74
2023/10/15 06:05:21;;;;;;;9.35;3.08;;;;;;;;;;5068084;28;20020;-77
2023/10/15 06:07:47;;;;;;;8.75;3.35;;;;;;;;;;5069707;28;20031;-75
2023/10/15 06:10:13;;;;;;;8.40;2.30;;;;;;;;;;5070599;28;20124;-76
2023/10/15 06:12:39;;;;;;;10.63;2.80;;;;;;;;;;5065675;28;20175;-75
2023/10/15 06:15:06;;;;;;;17.73;3.15;;;;;;;;;;5053185;28;20462;-75
2023/10/15 06:17:32;;;;;;;7.35;2.95;;;;;;;;;;5048818;28;20021;-76
2023/10/15 06:19:58;;;;;;;10.57;2.92;;;;;;;;;;5050352;28;20025;-75
2023/10/15 06:22:23;;;;;;;6.72;2.35;;;;;;;;;;5046276;28;20029;-76
2023/10/15 06:24:49;;;;;;;7.68;2.60;;;;;;;;;;5051411;28;20025;-75
2023/10/15 06:27:15;;;;;;;4.18;2.13;;;;;;;;;;5051913;28;20029;-76
2023/10/15 06:29:41;;;;;;;6.90;2.58;;;;;;;;;;5053290;28;20021;-76
2023/10/15 06:32:06;;;;;;;1.90;1.80;;;;;;;;;;5050620;28;20385;-77
2023/10/15 06:34:32;;;;;;;5.13;1.92;;;;;;;;;;5051730;28;20075;-75
2023/10/15 06:36:59;;;;;;;11.43;2.88;;;;;;;;;;5033920;28;20068;-75
2023/10/15 06:39:27;;;;;;;6.38;2.00;;;;;;;;;;5014008;28;20026;-74
2023/10/15 06:41:52;;;;;;;7.97;2.40;;;;;;;;;;5031871;28;20032;-75
2023/10/15 06:44:19;;;;;;;9.50;1.60;;;;;;;;;;5047535;28;20033;-75
2023/10/15 06:46:44;;;;;;;4.43;1.67;;;;;;;;;;5048967;28;20120;-75
2023/10/15 06:49:10;;;;;;;5.45;1.77;;;;;;;;;;5052652;28;20200;-75
2023/10/15 06:51:35;;;;;;;4.13;1.77;;;;;;;;;;5034905;28;20408;-75
2023/10/15 06:54:01;;;;;;;8.77;1.88;;;;;;;;;;5051023;28;20044;-75
2023/10/15 06:56:27;;;;;;;6.32;2.10;;;;;;;;;;5050550;28;20082;-76
2023/10/15 06:58:52;;;;;;;5.43;2.10;;;;;;;;;;5050586;28;20031;-76
2023/10/15 07:01:18;;;;;;;6.00;2.20;;;;;;;;;;5051052;28;20036;-76
2023/10/15 07:03:43;;;;;;;3.50;1.75;;;;;;;;;;5051984;28;20047;-75
2023/10/15 07:06:09;;;;;;;5.13;2.38;;;;;;;;;;5050977;28;20358;-75
2023/10/15 07:08:38;;;;;;;5.25;3.00;;;;;;;;;;5052885;28;20021;-76
2023/10/15 07:11:05;;;;;;;5.53;1.95;;;;;;;;;;5053596;28;20024;-75
2023/10/15 07:13:30;;;;;;;4.10;2.30;;;;;;;;;;5054627;28;20133;-76
2023/10/15 07:15:56;;;;;;;6.30;2.40;;;;;;;;;;5051322;28;20515;-76
2023/10/15 07:18:21;;;;;;;8.05;2.20;;;;;;;;;;5057071;28;20040;-76
2023/10/15 07:20:47;;;;;;;3.20;1.52;;;;;;;;;;5070261;28;20460;-75
2023/10/15 07:23:12;;;;;;;6.07;2.20;;;;;;;;;;5053404;28;20039;-75
2023/10/15 07:25:37;;;;;;;8.73;1.88;;;;;;;;;;5070133;28;20530;-74
2023/10/15 07:28:04;;;;;;;11.00;2.50;;;;;;;;;;5069910;28;20020;-75
2023/10/15 07:30:30;;;;;;;7.10;1.95;;;;;;;;;;5069742;28;20377;-76
2023/10/15 07:32:59;;;;;;;2.53;1.40;;;;;;;;;;5070898;28;20444;-75
2023/10/15 07:35:25;;;;;;;1.48;0.90;;;;;;;;;;5070031;28;20116;-75
2023/10/15 07:37:51;;;;;;;7.15;1.30;;;;;;;;;;5083935;28;20097;-75
2023/10/15 07:40:17;;;;;;;1.42;0.82;;;;;;;;;;5066992;28;20104;-76
2023/10/15 07:42:48;;;;;;;2.22;1.08;;;;;;;;;;5070134;28;20124;-75
2023/10/15 07:45:17;;;;;;;10.60;2.10;;;;;;;;;;5070031;28;20492;-78
2023/10/15 07:47:42;;;;;;;3.30;1.00;;;;;;;;;;5071996;28;20028;-77
2023/10/15 07:50:08;;;;;;;4.43;1.00;;;;;;;;;;5071204;28;20113;-78
2023/10/15 07:52:34;;;;;;;11.00;1.70;;;;;;;;;;5071665;28;20385;-78
2023/10/15 07:55:01;;;;;;;5.20;1.60;;;;;;;;;;5072948;28;20025;-77
2023/10/15 07:57:27;;;;;;;4.13;0.93;;;;;;;;;;5070783;28;20021;-78
2023/10/15 08:00:00;;;;;;;5.07;1.42;;;;;;;;;;5086850;28;20049;-76
2023/10/15 08:02:26;;;;;;;4.32;1.40;;;;;;;;;;5066718;28;20067;-78
2023/10/15 08:04:55;;;;;;;4.40;1.00;;;;;;;;;;5067182;28;20036;-78
2023/10/15 08:07:21;;;;;;;1.92;0.93;;;;;;;;;;5070121;28;20474;-77
2023/10/15 08:09:47;;;;;;;6.68;1.35;;;;;;;;;;5057532;28;20024;-79
2023/10/15 08:12:12;;;;;;;5.95;1.13;;;;;;;;;;5064324;28;20102;-77
2023/10/15 08:14:38;;;;;;;3.90;1.10;;;;;;;;;;5069672;28;20028;-79
2023/10/15 08:17:03;;;;;;;7.38;1.35;;;;;;;;;;5066386;28;20486;-77
2023/10/15 08:19:30;;;;;;;8.52;1.08;;;;;;;;;;5049845;28;20073;-78
2023/10/15 08:21:56;;;;;;;11.20;1.10;;;;;;;;;;5064561;28;20068;-76
2023/10/15 08:24:21;;;;;;;10.88;1.63;;;;;;;;;;5050879;28;20056;-77
2023/10/15 08:26:47;;;;;;;2.55;0.70;;;;;;;;;;5065562;28;20109;-78
2023/10/15 08:29:13;;;;;;;4.72;1.30;;;;;;;;;;5050820;28;20033;-77
2023/10/15 08:31:38;;;;;;;6.72;1.75;;;;;;;;;;5057036;28;20040;-76
2023/10/15 08:34:04;;;;;;;6.95;1.17;;;;;;;;;;5065237;28;20037;-78
2023/10/15 08:36:29;;;;;;;8.48;1.55;;;;;;;;;;5053605;28;20033;-79
2023/10/15 08:38:56;;;;;;;4.07;1.13;;;;;;;;;;5058732;28;20465;-78
2023/10/15 08:41:24;;;;;;;14.15;1.63;;;;;;;;;;5042086;28;20029;-77
2023/10/15 08:43:51;;;;;;;1.90;1.05;;;;;;;;;;5073418;28;20028;-78
2023/10/15 08:46:22;;;;;;;9.77;1.67;;;;;;;;;;5075163;28;20081;-79
2023/10/15 08:48:48;;;;;;;4.18;1.00;;;;;;;;;;5062225;28;20418;-77
2023/10/15 08:51:20;;;;;;;7.78;1.95;;;;;;;;;;5099677;28;20082;-77
2023/10/15 08:53:50;;;;;;;6.38;1.20;;;;;;;;;;5081236;28;20028;-78
2023/10/15 08:56:25;;;;;;;11.75;1.70;;;;;;;;;;5071631;28;20090;-77
2023/10/15 08:58:54;;;;;;;2.70;1.20;;;;;;;;;;5071009;28;20032;-78
2023/10/15 09:01:20;;;;;;;3.53;0.93;;;;;;;;;;5072035;28;20116;-78
2023/10/15 09:03:46;;;;;;;2.53;1.25;;;;;;;;;;5069632;28;20465;-78
2023/10/15 09:06:12;;;;;;;5.53;1.58;;;;;;;;;;5069140;28;20093;-76
2023/10/15 09:08:41;;;;;;;5.35;1.13;;;;;;;;;;5069074;28;20032;-77
2023/10/15 09:11:06;;;;;;;2.72;0.75;;;;;;;;;;5068367;28;20377;-79
2023/10/15 09:13:36;;;;;;;5.00;1.10;;;;;;;;;;5068647;28;20048;-79
2023/10/15 09:16:03;;;;;;;4.07;1.02;;;;;;;;;;5051853;28;20151;-78
2023/10/15 09:18:28;;;;;;;7.55;1.00;;;;;;;;;;5068743;28;20029;-77
2023/10/15 09:20:58;;;;;;;6.53;1.10;;;;;;;;;;5068438;28;20043;-77
2023/10/15 09:23:23;;;;;;;5.25;1.17;;;;;;;;;;5068771;28;20051;-77
2023/10/15 09:25:53;;;;;;;4.75;1.00;;;;;;;;;;5068483;28;20032;-77
2023/10/15 09:28:19;;;;;;;3.63;1.02;;;;;;;;;;5070160;28;20090;-76
2023/10/15 09:30:46;;;;;;;2.47;0.82;;;;;;;;;;5068195;28;20044;-77
2023/10/15 09:33:16;;;;;;;8.02;1.15;;;;;;;;;;5069300;28;20082;-77
2023/10/15 09:35:42;;;;;;;7.93;1.02;;;;;;;;;;5068177;28;20568;-76
2023/10/15 09:38:10;;;;;;;8.70;3.38;;;;;;;;;;5068108;28;20029;-77
2023/10/15 09:40:35;;;;;;;2.47;0.63;;;;;;;;;;5047934;28;20469;-77
2023/10/15 09:43:01;;;;;;;4.60;1.13;;;;;;;;;;5061637;28;20048;-77
2023/10/15 09:45:30;;;;;;;2.85;1.77;;;;;;;;;;5070218;28;20433;-77
2023/10/15 09:47:58;;;;;;;2.70;1.02;;;;;;;;;;5072874;28;20520;-77
2023/10/15 09:50:25;;;;;;;7.45;1.05;;;;;;;;;;5073497;28;20056;-77
2023/10/15 09:52:57;;;;;;;4.57;1.30;;;;;;;;;;5072942;28;20448;-77
2023/10/15 09:55:32;;;;;;;9.88;1.33;;;;;;;;;;5073195;28;20085;-76
2023/10/15 09:57:58;;;;;;;4.38;0.98;;;;;;;;;;5074786;28;20032;-77
2023/10/15 10:00:46;;;;;;;4.68;0.93;;;;;;;;;;5074618;28;20037;-77
2023/10/15 10:03:30;;;;;;;1.38;0.57;;;;;;;;;;5075188;28;20522;-77
2023/10/15 10:06:16;;;;;;;6.85;0.80;;;;;;;;;;5078495;28;20025;-76
2023/10/15 10:08:47;;;;;;;5.80;1.00;;;;;;;;;;5025443;28;20095;-75
2023/10/15 10:11:24;;;;;;;5.65;1.13;;;;;;;;;;5074146;28;20032;-77
2023/10/15 10:14:19;;;;;;;6.00;1.00;;;;;;;;;;5071034;28;20048;-76
2023/10/15 10:16:44;;;;;;;3.05;1.05;;;;;;;;;;5046068;28;20047;-76
2023/10/15 10:19:10;;;;;;;5.43;1.05;;;;;;;;;;5072398;28;20036;-77
2023/10/15 10:21:36;;;;;;;2.50;0.73;;;;;;;;;;5073020;28;20085;-76
2023/10/15 10:24:08;;;;;;;6.20;1.30;;;;;;;;;;5090219;28;20059;-77
2023/10/15 10:26:35;;;;;;;3.65;0.82;;;;;;;;;;5089673;28;20119;-77
2023/10/15 10:29:02;;;;;;;1.90;0.75;;;;;;;;;;5071491;28;20477;-77
2023/10/15 10:31:39;;;;;;;3.97;1.10;;;;;;;;;;5056019;28;20385;-79
2023/10/15 10:34:05;;;;;;;4.90;1.05;;;;;;;;;;5053119;28;20124;-77
2023/10/15 10:36:36;;;;;;;5.47;1.13;;;;;;;;;;5068679;28;20112;-78
2023/10/15 10:39:11;;;;;;;3.42;0.70;;;;;;;;;;5088134;28;20056;-78
2023/10/15 10:41:44;;;;;;;3.75;0.98;;;;;;;;;;5071318;28;20071;-78
2023/10/15 10:44:29;;;;;;;4.03;1.00;;;;;;;;;;5034869;28;20099;-78
2023/10/15 10:46:57;;;;;;;5.55;1.15;;;;;;;;;;5051333;28;20473;-78
2023/10/15 10:49:30;;;;;;;2.20;0.98;;;;;;;;;;5038382;28;20086;-74
2023/10/15 10:52:17;;;;;;;4.75;1.08;;;;;;;;;;5070573;28;20025;-74
2023/10/15 10:54:43;;;;;;;6.13;2.13;;;;;;;;;;5071564;28;20043;-74
2023/10/15 10:57:08;;;;;;;1.38;0.60;;;;;;;;;;5070309;28;20027;-73
2023/10/15 10:59:37;;;;;;;2.65;0.60;;;;;;;;;;5071182;28;20408;-74
2023/10/15 11:02:06;;;;;;;2.00;0.70;;;;;;;;;;5072052;28;20052;-74
2023/10/15 11:04:32;;;;;;;3.50;1.02;;;;;;;;;;5067209;28;20128;-73
2023/10/15 11:06:58;;;;;;;3.50;0.73;;;;;;;;;;5068159;28;20124;-74
2023/10/15 11:09:25;;;;;;;4.88;0.88;;;;;;;;;;5063805;28;20098;-75
2023/10/15 11:11:51;;;;;;;2.50;1.10;;;;;;;;;;5067051;28;20054;-74
2023/10/15 11:14:18;;;;;;;1.27;0.55;;;;;;;;;;5066974;28;20049;-74
2023/10/15 11:16:44;;;;;;;2.97;0.60;;;;;;;;;;5050199;28;20102;-75
2023/10/15 11:19:16;;;;;;;2.20;0.63;;;;;;;;;;5065764;28;20426;-73
2023/10/15 11:21:42;;;;;;;3.95;0.90;;;;;;;;;;5049770;28;20037;-74
2023/10/15 11:24:11;;;;;;;3.45;0.73;;;;;;;;;;5063770;28;20032;-74
2023/10/15 11:26:41;;;;;;;4.45;0.82;;;;;;;;;;5071066;28;20047;-74
2023/10/15 11:29:07;;;;;;;2.15;0.55;;;;;;;;;;5071864;28;20024;-75
2023/10/15 11:31:34;;;;;;;3.58;0.60;;;;;;;;;;5070444;28;20041;-74
2023/10/15 11:33:59;;;;;;;1.98;0.50;;;;;;;;;;5071436;28;20024;-74
2023/10/15 11:36:25;;;;;;;4.05;0.90;;;;;;;;;;5069955;28;20752;-74
2023/10/15 11:38:51;;;;;;;4.68;0.80;;;;;;;;;;5066352;28;20021;-74
2023/10/15 11:41:17;;;;;;;6.82;0.77;;;;;;;;;;5066721;28;20040;-74
2023/10/15 11:43:43;;;;;;;2.05;0.90;;;;;;;;;;5064882;28;20111;-74
2023/10/15 11:46:10;;;;;;;3.55;0.68;;;;;;;;;;5069376;28;20520;-74
2023/10/15 11:48:37;;;;;;;3.40;0.88;;;;;;;;;;5057241;28;20037;-74
2023/10/15 11:51:05;;;;;;;3.58;0.70;;;;;;;;;;5081564;28;20036;-74
2023/10/15 11:53:31;;;;;;;2.30;0.60;;;;;;;;;;5066574;28;20029;-75
2023/10/15 11:55:56;;;;;;;5.40;1.08;;;;;;;;;;5051151;28;20090;-75
2023/10/15 11:58:23;;;;;;;3.10;0.40;;;;;;;;;;5066160;28;20029;-73
2023/10/15 12:00:51;;;;;;;6.18;0.95;;;;;;;;;;5083382;28;20037;-75
2023/10/15 12:03:16;;;;;;;3.33;0.70;;;;;;;;;;5049819;28;20113;-76
2023/10/15 12:05:43;;;;;;;5.03;0.68;;;;;;;;;;5051649;28;20120;-73
2023/10/15 12:08:12;;;;;;;4.88;0.98;;;;;;;;;;5070325;28;20032;-74
2023/10/15 12:10:41;;;;;;;1.38;0.60;;;;;;;;;;5069056;28;20059;-76
2023/10/15 12:13:08;;;;;;;1.75;0.57;;;;;;;;;;5061992;28;20060;-76
2023/10/15 12:15:34;;;;;;;1.75;0.50;;;;;;;;;;5069436;28;20036;-73
2023/10/15 12:17:59;;;;;;;2.17;0.70;;;;;;;;;;5050342;28;20075;-75
2023/10/15 12:20:26;;;;;;;0.90;0.52;;;;;;;;;;5032635;28;20056;-74
2023/10/15 12:22:52;;;;;;;3.75;0.70;;;;;;;;;;5050453;28;20112;-74
2023/10/15 12:25:17;;;;;;;2.63;0.80;;;;;;;;;;5071115;28;20400;-74
2023/10/15 12:27:43;;;;;;;2.63;0.60;;;;;;;;;;5065986;28;20087;-73
2023/10/15 12:30:19;;;;;;;1.75;0.60;;;;;;;;;;5066095;28;20020;-73
2023/10/15 12:32:45;;;;;;;5.82;0.57;;;;;;;;;;5069029;28;20059;-74
2023/10/15 12:35:11;;;;;;;3.20;0.68;;;;;;;;;;5086480;28;20090;-74
2023/10/15 12:37:37;;;;;;;1.40;0.45;;;;;;;;;;5054268;28;20349;-74
2023/10/15 12:40:11;;;;;;;2.47;0.60;;;;;;;;;;5048991;28;20040;-76
2023/10/15 12:42:37;;;;;;;3.47;0.65;;;;;;;;;;5064585;28;20571;-75
2023/10/15 12:45:03;;;;;;;2.95;0.70;;;;;;;;;;5068760;28;20047;-74
2023/10/15 12:47:29;;;;;;;4.72;0.90;;;;;;;;;;5070174;28;20077;-74
2023/10/15 12:49:55;;;;;;;2.83;0.75;;;;;;;;;;5070676;28;20106;-74
2023/10/15 12:52:20;;;;;;;2.50;0.50;;;;;;;;;;5065830;28;20048;-74
2023/10/15 12:54:46;;;;;;;4.28;0.80;;;;;;;;;;5065571;28;20124;-74
2023/10/15 12:57:12;;;;;;;1.15;0.57;;;;;;;;;;5069347;28;20040;-75
2023/10/15 12:59:37;;;;;;;2.53;0.60;;;;;;;;;;5066303;28;20056;-74
2023/10/15 13:02:03;;;;;;;1.98;0.52;;;;;;;;;;5053417;28;20029;-75
2023/10/15 13:04:29;;;;;;;5.57;0.70;;;;;;;;;;5067204;28;20025;-73
2023/10/15 13:06:55;;;;;;;3.88;0.70;;;;;;;;;;5078866;28;20061;-75
2023/10/15 13:09:25;;;;;;;1.98;0.60;;;;;;;;;;5073852;28;20071;-74
2023/10/15 13:11:51;;;;;;;1.73;0.47;;;;;;;;;;5070241;28;20486;-75
2023/10/15 13:14:17;;;;;;;2.15;0.73;;;;;;;;;;5070257;28;20523;-75
2023/10/15 13:16:42;;;;;;;2.47;0.47;;;;;;;;;;5070431;28;20035;-75
2023/10/15 13:19:08;;;;;;;0.82;0.50;;;;;;;;;;5072177;28;20396;-73
2023/10/15 13:21:33;;;;;;;4.18;0.63;;;;;;;;;;5077185;28;20032;-74
2023/10/15 13:23:58;;;;;;;0.95;0.45;;;;;;;;;;5076646;28;20043;-76
2023/10/15 13:26:24;;;;;;;4.60;0.70;;;;;;;;;;5077826;28;20028;-76
2023/10/15 13:28:52;;;;;;;2.78;0.90;;;;;;;;;;5077079;28;20032;-74
2023/10/15 13:31:18;;;;;;;2.25;0.70;;;;;;;;;;5075311;28;20037;-77
2023/10/15 13:33:43;;;;;;;2.67;0.50;;;;;;;;;;5074741;28;20081;-75
2023/10/15 13:36:13;;;;;;;2.92;0.60;;;;;;;;;;5075170;28;20024;-75
2023/10/15 13:38:40;;;;;;;1.95;0.50;;;;;;;;;;5074695;28;20028;-74
2023/10/15 13:41:05;;;;;;;1.23;0.75;;;;;;;;;;5074811;28;20028;-75
2023/10/15 13:43:31;;;;;;;1.08;0.60;;;;;;;;;;5071742;28;20039;-77
2023/10/15 13:45:57;;;;;;;4.78;1.08;;;;;;;;;;5071543;28;20537;-75
2023/10/15 13:48:22;;;;;;;5.15;1.08;;;;;;;;;;5074773;28;20031;-74
2023/10/15 13:50:49;;;;;;;5.50;1.10;;;;;;;;;;5075169;28;20032;-75
2023/10/15 13:53:14;;;;;;;4.05;1.60;;;;;;;;;;5076000;28;20040;-73
2023/10/15 13:55:40;;;;;;;3.35;1.23;;;;;;;;;;5074373;28;20047;-75
2023/10/15 13:58:05;;;;;;;32.53;1.75;;;;;;;;;;5074433;28;20032;-74
2023/10/15 14:00:31;;;;;;;1.45;0.40;;;;;;;;;;5071621;28;20037;-75
2023/10/15 14:02:57;;;;;;;0.70;0.68;;;;;;;;;;5071199;28;20047;-74
2023/10/15 14:05:22;;;;;;;1.02;0.45;;;;;;;;;;5071758;28;20033;-73
2023/10/15 14:07:49;;;;;;;1.17;0.47;;;;;;;;;;5075380;28;20209;-73
2023/10/15 14:10:15;;;;;;;3.03;1.75;;;;;;;;;;5092241;28;20056;-74
2023/10/15 14:12:41;;;;;;;2.25;0.50;;;;;;;;;;5076749;28;20056;-73
2023/10/15 14:15:10;;;;;;;0.57;0.40;;;;;;;;;;5093072;28;20495;-74
2023/10/15 14:17:36;;;;;;;2.05;0.50;;;;;;;;;;5075831;28;20032;-74
2023/10/15 14:20:09;;;;;;;1.00;0.50;;;;;;;;;;5072122;28;20051;-74
2023/10/15 14:22:34;;;;;;;5.93;0.82;;;;;;;;;;5066378;28;20056;-75
2023/10/15 14:25:00;;;;;;;1.42;0.60;;;;;;;;;;5076258;28;20110;-74
2023/10/15 14:27:25;;;;;;;0.85;0.40;;;;;;;;;;5071980;28;20060;-73
2023/10/15 14:29:51;;;;;;;0.52;0.40;;;;;;;;;;5071414;28;20028;-73
2023/10/15 14:32:16;;;;;;;0.63;0.52;;;;;;;;;;5070414;28;20448;-74
2023/10/15 14:34:42;;;;;;;2.92;0.70;;;;;;;;;;5072624;28;20082;-73
2023/10/15 14:37:07;;;;;;;0.82;0.70;;;;;;;;;;5068009;28;20649;-75
2023/10/15 14:39:33;;;;;;;1.25;0.80;;;;;;;;;;5069061;28;20056;-74
2023/10/15 14:41:58;;;;;;;2.45;0.85;;;;;;;;;;5068891;28;20064;-75
2023/10/15 14:44:24;;;;;;;2.20;0.70;;;;;;;;;;5068577;28;20101;-74
2023/10/15 14:46:50;;;;;;;2.05;0.75;;;;;;;;;;5087909;28;20032;-74
2023/10/15 14:49:15;;;;;;;1.27;0.63;;;;;;;;;;5073065;28;20625;-76
2023/10/15 14:51:41;;;;;;;3.13;0.80;;;;;;;;;;5072687;28;20033;-75
2023/10/15 14:54:07;;;;;;;1.10;0.38;;;;;;;;;;5071834;28;20115;-75
2023/10/15 14:56:32;;;;;;;2.60;0.80;;;;;;;;;;5039123;28;20128;-74
2023/10/15 14:58:59;;;;;;;1.42;0.70;;;;;;;;;;5071986;28;20038;-72
2023/10/15 15:01:24;;;;;;;1.30;0.70;;;;;;;;;;5072598;28;20085;-74